sensor_id;sensor_type;location;lat;lon;timestamp;pressure;altitude;pressure_sealevel;temperature;humidity
14269;BME280;7218;51.480;7.006;2023-02-13T00:02:02;102760.72;;;12.33;80.42
14269;BME280;7218;51.480;7.006;2023-02-13T00:04:28;102763.41;;;12.37;80.72
14269;BME280;7218;51.480;7.006;2023-02-13T00:06:55;102759.03;;;12.35;80.69
14269;BME280;7218;51.480;7.006;2023-02-13T00:09:22;102753.72;;;12.30;80.72
14269;BME280;7218;51.480;7.006;2023-02-13T00:11:48;102748.47;;;12.29;80.90
14269;BME280;7218;51.480;7.006;2023-02-13T00:14:15;102748.53;;;12.33;80.75
14269;BME280;7218;51.480;7.006;2023-02-13T00:16:43;102751.22;;;12.41;80.16
14269;BME280;7218;51.480;7.006;2023-02-13T00:19:09;102747.16;;;11.98;82.25
14269;BME280;7218;51.480;7.006;2023-02-13T00:21:36;102740.06;;;11.91;82.79
14269;BME280;7218;51.480;7.006;2023-02-13T00:24:03;102739.91;;;11.79;83.36
14269;BME280;7218;51.480;7.006;2023-02-13T00:26:30;102740.97;;;11.91;83.06
14269;BME280;7218;51.480;7.006;2023-02-13T00:28:56;102748.75;;;11.85;83.41
14269;BME280;7218;51.480;7.006;2023-02-13T00:31:23;102740.13;;;11.92;82.75
14269;BME280;7218;51.480;7.006;2023-02-13T00:33:51;102736.72;;;11.98;82.64
14269;BME280;7218;51.480;7.006;2023-02-13T00:36:19;102736.78;;;12.02;82.28
14269;BME280;7218;51.480;7.006;2023-02-13T00:38:46;102739.38;;;12.02;82.87
14269;BME280;7218;51.480;7.006;2023-02-13T00:41:13;102739.44;;;12.07;82.18
14269;BME280;7218;51.480;7.006;2023-02-13T00:43:41;102739.47;;;12.08;82.22
14269;BME280;7218;51.480;7.006;2023-02-13T00:46:08;102740.31;;;12.07;82.17
14269;BME280;7218;51.480;7.006;2023-02-13T00:48:36;102743.75;;;12.03;82.52
14269;BME280;7218;51.480;7.006;2023-02-13T00:51:04;102738.53;;;12.03;82.14
14269;BME280;7218;51.480;7.006;2023-02-13T00:53:32;102742.75;;;11.94;83.03
14269;BME280;7218;51.480;7.006;2023-02-13T00:55:59;102736.66;;;11.93;82.64
14269;BME280;7218;51.480;7.006;2023-02-13T00:58:26;102732.59;;;11.58;83.47
14269;BME280;7218;51.480;7.006;2023-02-13T01:00:53;102739.06;;;11.81;82.27
14269;BME280;7218;51.480;7.006;2023-02-13T01:03:20;102733.81;;;11.78;82.34
14269;BME280;7218;51.480;7.006;2023-02-13T01:05:48;102739.28;;;11.95;81.36
14269;BME280;7218;51.480;7.006;2023-02-13T01:08:17;102742.56;;;11.82;81.66
14269;BME280;7218;51.480;7.006;2023-02-13T01:10:45;102737.81;;;11.58;81.98
14269;BME280;7218;51.480;7.006;2023-02-13T01:13:13;102747.00;;;11.87;80.20
14269;BME280;7218;51.480;7.006;2023-02-13T01:15:40;102743.50;;;11.85;80.62
14269;BME280;7218;51.480;7.006;2023-02-13T01:18:06;102741.03;;;11.96;80.07
14269;BME280;7218;51.480;7.006;2023-02-13T01:20:33;102728.78;;;11.90;80.53
14269;BME280;7218;51.480;7.006;2023-02-13T01:22:59;102735.91;;;12.03;79.93
14269;BME280;7218;51.480;7.006;2023-02-13T01:25:27;102733.31;;;12.03;80.37
14269;BME280;7218;51.480;7.006;2023-02-13T01:27:54;102734.97;;;11.98;80.81
14269;BME280;7218;51.480;7.006;2023-02-13T01:30:20;102734.91;;;11.94;80.85
14269;BME280;7218;51.480;7.006;2023-02-13T01:32:47;102737.56;;;11.97;81.25
14269;BME280;7218;51.480;7.006;2023-02-13T01:35:14;102736.63;;;11.90;80.53
14269;BME280;7218;51.480;7.006;2023-02-13T01:37:41;102732.28;;;11.94;79.94
14269;BME280;7218;51.480;7.006;2023-02-13T01:40:11;102734.03;;;11.93;79.76
14269;BME280;7218;51.480;7.006;2023-02-13T01:42:39;102737.69;;;12.06;79.17
14269;BME280;7218;51.480;7.006;2023-02-13T01:45:18;102729.78;;;12.01;79.39
14269;BME280;7218;51.480;7.006;2023-02-13T01:47:48;102733.28;;;12.02;79.54
14269;BME280;7218;51.480;7.006;2023-02-13T01:50:18;102729.63;;;11.91;80.18
14269;BME280;7218;51.480;7.006;2023-02-13T01:52:48;102722.63;;;11.88;79.66
14269;BME280;7218;51.480;7.006;2023-02-13T01:55:17;102721.94;;;11.46;82.24
14269;BME280;7218;51.480;7.006;2023-02-13T01:57:49;102723.19;;;11.71;80.60
14269;BME280;7218;51.480;7.006;2023-02-13T02:00:18;102720.50;;;11.64;81.18
14269;BME280;7218;51.480;7.006;2023-02-13T02:02:48;102726.53;;;11.60;81.32
14269;BME280;7218;51.480;7.006;2023-02-13T02:05:17;102725.69;;;11.63;81.33
14269;BME280;7218;51.480;7.006;2023-02-13T02:07:45;102719.66;;;11.67;81.27
14269;BME280;7218;51.480;7.006;2023-02-13T02:10:15;102719.66;;;11.67;80.30
14269;BME280;7218;51.480;7.006;2023-02-13T02:12:48;102707.75;;;11.84;79.59
14269;BME280;7218;51.480;7.006;2023-02-13T02:15:17;102710.63;;;11.47;81.36
14269;BME280;7218;51.480;7.006;2023-02-13T02:17:45;102717.16;;;11.73;80.71
14269;BME280;7218;51.480;7.006;2023-02-13T02:20:23;102714.72;;;11.84;79.89
14269;BME280;7218;51.480;7.006;2023-02-13T02:23:34;102716.31;;;11.76;80.43
14269;BME280;7218;51.480;7.006;2023-02-13T02:26:23;102710.13;;;11.69;80.81
14269;BME280;7218;51.480;7.006;2023-02-13T02:29:12;102713.84;;;11.83;80.40
14269;BME280;7218;51.480;7.006;2023-02-13T02:32:09;102710.16;;;11.72;80.76
14269;BME280;7218;51.480;7.006;2023-02-13T02:34:48;102711.41;;;11.40;81.48
14269;BME280;7218;51.480;7.006;2023-02-13T02:37:28;102709.88;;;11.54;81.40
14269;BME280;7218;51.480;7.006;2023-02-13T02:40:09;102713.94;;;11.37;81.63
14269;BME280;7218;51.480;7.006;2023-02-13T02:42:44;102707.31;;;11.57;81.11
14269;BME280;7218;51.480;7.006;2023-02-13T02:45:19;102711.78;;;11.10;83.14
14269;BME280;7218;51.480;7.006;2023-02-13T02:47:53;102708.69;;;11.34;81.54
14269;BME280;7218;51.480;7.006;2023-02-13T02:50:50;102713.94;;;11.37;82.34
14269;BME280;7218;51.480;7.006;2023-02-13T02:53:28;102707.97;;;11.44;81.81
14269;BME280;7218;51.480;7.006;2023-02-13T02:56:00;102712.53;;;11.57;80.83
14269;BME280;7218;51.480;7.006;2023-02-13T02:58:35;102716.81;;;11.52;81.47
14269;BME280;7218;51.480;7.006;2023-02-13T03:01:24;102710.53;;;11.41;81.95
14269;BME280;7218;51.480;7.006;2023-02-13T03:04:17;102713.34;;;11.53;81.41
14269;BME280;7218;51.480;7.006;2023-02-13T03:07:05;102717.72;;;11.54;81.24
14269;BME280;7218;51.480;7.006;2023-02-13T03:09:36;102713.38;;;11.56;81.70
14269;BME280;7218;51.480;7.006;2023-02-13T03:12:23;102721.06;;;11.45;81.46
14269;BME280;7218;51.480;7.006;2023-02-13T03:15:09;102717.50;;;11.42;81.87
14269;BME280;7218;51.480;7.006;2023-02-13T03:17:36;102712.03;;;11.27;82.20
14269;BME280;7218;51.480;7.006;2023-02-13T03:20:30;102707.03;;;11.39;81.83
14269;BME280;7218;51.480;7.006;2023-02-13T03:23:20;102710.78;;;11.03;82.72
14269;BME280;7218;51.480;7.006;2023-02-13T03:26:05;102722.44;;;11.23;82.26
14269;BME280;7218;51.480;7.006;2023-02-13T03:28:36;102716.13;;;11.11;82.63
14269;BME280;7218;51.480;7.006;2023-02-13T03:31:31;102717.75;;;11.04;81.98
14269;BME280;7218;51.480;7.006;2023-02-13T03:34:02;102720.38;;;11.04;82.29
14269;BME280;7218;51.480;7.006;2023-02-13T03:36:36;102724.78;;;11.08;82.35
14269;BME280;7218;51.480;7.006;2023-02-13T03:39:25;102728.59;;;10.79;82.81
14269;BME280;7218;51.480;7.006;2023-02-13T03:41:57;102720.19;;;10.94;82.66
14269;BME280;7218;51.480;7.006;2023-02-13T03:44:30;102728.94;;;10.96;82.39
14269;BME280;7218;51.480;7.006;2023-02-13T03:46:59;102731.22;;;10.79;82.74
14269;BME280;7218;51.480;7.006;2023-02-13T03:49:30;102738.78;;;10.65;83.77
14269;BME280;7218;51.480;7.006;2023-02-13T03:52:22;102732.97;;;10.80;83.08
14269;BME280;7218;51.480;7.006;2023-02-13T03:54:54;102738.66;;;10.59;83.39
14269;BME280;7218;51.480;7.006;2023-02-13T03:57:42;102732.91;;;10.75;83.18
14269;BME280;7218;51.480;7.006;2023-02-13T04:00:32;102735.78;;;10.92;81.99
14269;BME280;7218;51.480;7.006;2023-02-13T04:03:15;102741.00;;;10.91;81.91
14269;BME280;7218;51.480;7.006;2023-02-13T04:05:48;102734.91;;;10.92;81.73
14269;BME280;7218;51.480;7.006;2023-02-13T04:08:18;102730.78;;;11.03;81.38
14269;BME280;7218;51.480;7.006;2023-02-13T04:10:49;102730.56;;;10.92;82.03
14269;BME280;7218;51.480;7.006;2023-02-13T04:13:22;102734.44;;;11.12;81.06
14269;BME280;7218;51.480;7.006;2023-02-13T04:15:55;102735.97;;;11.01;81.76
14269;BME280;7218;51.480;7.006;2023-02-13T04:18:24;102729.81;;;10.98;81.71
14269;BME280;7218;51.480;7.006;2023-02-13T04:20:52;102729.09;;;11.05;81.33
14269;BME280;7218;51.480;7.006;2023-02-13T04:23:20;102724.75;;;11.05;81.62
14269;BME280;7218;51.480;7.006;2023-02-13T04:25:49;102725.22;;;10.85;82.51
14269;BME280;7218;51.480;7.006;2023-02-13T04:28:16;102728.97;;;10.99;81.95
14269;BME280;7218;51.480;7.006;2023-02-13T04:30:43;102728.19;;;11.04;82.18
14269;BME280;7218;51.480;7.006;2023-02-13T04:33:09;102730.97;;;11.13;81.47
14269;BME280;7218;51.480;7.006;2023-02-13T04:35:36;102732.66;;;11.11;81.66
14269;BME280;7218;51.480;7.006;2023-02-13T04:38:03;102731.78;;;11.11;82.04
14269;BME280;7218;51.480;7.006;2023-02-13T04:40:31;102727.44;;;11.10;81.83
14269;BME280;7218;51.480;7.006;2023-02-13T04:42:59;102723.94;;;11.11;82.28
14269;BME280;7218;51.480;7.006;2023-02-13T04:45:28;102728.50;;;11.22;81.70
14269;BME280;7218;51.480;7.006;2023-02-13T04:47:56;102726.47;;;11.06;81.78
14269;BME280;7218;51.480;7.006;2023-02-13T04:50:23;102721.34;;;11.09;82.40
14269;BME280;7218;51.480;7.006;2023-02-13T04:52:52;102720.63;;;11.21;81.47
14269;BME280;7218;51.480;7.006;2023-02-13T04:55:20;102717.94;;;11.16;81.95
14269;BME280;7218;51.480;7.006;2023-02-13T04:57:51;102723.44;;;11.32;81.43
14269;BME280;7218;51.480;7.006;2023-02-13T05:00:18;102721.53;;;11.21;81.33
14269;BME280;7218;51.480;7.006;2023-02-13T05:02:45;102714.66;;;11.27;81.64
14269;BME280;7218;51.480;7.006;2023-02-13T05:05:11;102707.59;;;11.19;81.47
14269;BME280;7218;51.480;7.006;2023-02-13T05:07:38;102711.78;;;11.11;82.55
14269;BME280;7218;51.480;7.006;2023-02-13T05:10:05;102712.66;;;11.10;82.35
14269;BME280;7218;51.480;7.006;2023-02-13T05:12:32;102710.72;;;11.00;83.21
14269;BME280;7218;51.480;7.006;2023-02-13T05:15:00;102715.13;;;11.03;82.98
14269;BME280;7218;51.480;7.006;2023-02-13T05:17:27;102714.31;;;11.07;82.53
14269;BME280;7218;51.480;7.006;2023-02-13T05:19:54;102717.88;;;11.10;82.44
14269;BME280;7218;51.480;7.006;2023-02-13T05:22:20;102719.69;;;11.14;82.35
14269;BME280;7218;51.480;7.006;2023-02-13T05:25:05;102715.44;;;10.73;84.60
14269;BME280;7218;51.480;7.006;2023-02-13T05:27:31;102714.19;;;10.99;83.91
14269;BME280;7218;51.480;7.006;2023-02-13T05:29:58;102718.66;;;11.06;83.06
14269;BME280;7218;51.480;7.006;2023-02-13T05:32:26;102705.41;;;10.94;83.52
14269;BME280;7218;51.480;7.006;2023-02-13T05:34:52;102702.63;;;10.85;84.02
14269;BME280;7218;51.480;7.006;2023-02-13T05:37:20;102703.78;;;11.02;83.25
14269;BME280;7218;51.480;7.006;2023-02-13T05:39:46;102699.44;;;11.03;82.97
14269;BME280;7218;51.480;7.006;2023-02-13T05:42:13;102701.41;;;11.14;82.47
14269;BME280;7218;51.480;7.006;2023-02-13T05:44:39;102702.28;;;11.16;82.23
14269;BME280;7218;51.480;7.006;2023-02-13T05:47:06;102702.28;;;11.15;82.42
14269;BME280;7218;51.480;7.006;2023-02-13T05:49:34;102698.56;;;11.02;83.29
14269;BME280;7218;51.480;7.006;2023-02-13T05:52:00;102699.56;;;11.09;83.31
14269;BME280;7218;51.480;7.006;2023-02-13T05:54:27;102701.75;;;10.86;84.18
14269;BME280;7218;51.480;7.006;2023-02-13T05:56:53;102703.88;;;11.07;83.37
14269;BME280;7218;51.480;7.006;2023-02-13T05:59:20;102713.69;;;11.21;82.70
14269;BME280;7218;51.480;7.006;2023-02-13T06:01:46;102715.50;;;11.24;82.49
14269;BME280;7218;51.480;7.006;2023-02-13T06:04:13;102713.63;;;11.17;82.44
14269;BME280;7218;51.480;7.006;2023-02-13T06:06:41;102707.69;;;11.27;82.70
14269;BME280;7218;51.480;7.006;2023-02-13T06:09:09;102701.50;;;11.22;82.51
14269;BME280;7218;51.480;7.006;2023-02-13T06:11:35;102706.34;;;10.99;83.27
14269;BME280;7218;51.480;7.006;2023-02-13T06:14:02;102703.84;;;11.05;83.00
14269;BME280;7218;51.480;7.006;2023-02-13T06:16:28;102709.09;;;11.05;82.83
14269;BME280;7218;51.480;7.006;2023-02-13T06:18:55;102692.53;;;11.05;83.06
14269;BME280;7218;51.480;7.006;2023-02-13T06:21:22;102695.00;;;10.97;83.51
14269;BME280;7218;51.480;7.006;2023-02-13T06:23:50;102687.03;;;10.91;83.33
14269;BME280;7218;51.480;7.006;2023-02-13T06:26:17;102689.50;;;10.82;83.67
14269;BME280;7218;51.480;7.006;2023-02-13T06:28:44;102687.69;;;10.78;83.89
14269;BME280;7218;51.480;7.006;2023-02-13T06:31:10;102692.75;;;10.69;83.78
14269;BME280;7218;51.480;7.006;2023-02-13T06:33:37;102692.56;;;10.60;84.18
14269;BME280;7218;51.480;7.006;2023-02-13T06:36:04;102689.78;;;10.51;84.81
14269;BME280;7218;51.480;7.006;2023-02-13T06:38:30;102694.13;;;10.50;84.52
14269;BME280;7218;51.480;7.006;2023-02-13T06:40:59;102694.13;;;10.52;84.79
14269;BME280;7218;51.480;7.006;2023-02-13T06:43:27;102694.13;;;10.50;85.08
14269;BME280;7218;51.480;7.006;2023-02-13T06:45:54;102695.69;;;10.41;85.17
14269;BME280;7218;51.480;7.006;2023-02-13T06:48:20;102685.00;;;10.28;85.80
14269;BME280;7218;51.480;7.006;2023-02-13T06:50:47;102691.03;;;10.27;85.92
14269;BME280;7218;51.480;7.006;2023-02-13T06:53:16;102692.47;;;10.13;86.58
14269;BME280;7218;51.480;7.006;2023-02-13T06:55:42;102688.16;;;10.15;86.30
14269;BME280;7218;51.480;7.006;2023-02-13T06:58:10;102691.56;;;10.13;86.87
14269;BME280;7218;51.480;7.006;2023-02-13T07:00:37;102691.47;;;10.08;87.49
14269;BME280;7218;51.480;7.006;2023-02-13T07:03:04;102695.75;;;10.05;86.79
14269;BME280;7218;51.480;7.006;2023-02-13T07:05:31;102698.38;;;10.06;86.76
14269;BME280;7218;51.480;7.006;2023-02-13T07:07:58;102697.47;;;10.04;87.04
14269;BME280;7218;51.480;7.006;2023-02-13T07:10:24;102700.03;;;10.01;86.52
14269;BME280;7218;51.480;7.006;2023-02-13T07:12:51;102707.38;;;9.80;87.49
14269;BME280;7218;51.480;7.006;2023-02-13T07:15:19;102714.06;;;9.69;87.98
14269;BME280;7218;51.480;7.006;2023-02-13T07:17:46;102713.06;;;9.64;88.73
14269;BME280;7218;51.480;7.006;2023-02-13T07:20:12;102710.47;;;9.64;88.77
14269;BME280;7218;51.480;7.006;2023-02-13T07:22:39;102716.34;;;9.55;88.85
14269;BME280;7218;51.480;7.006;2023-02-13T07:25:06;102711.03;;;9.50;89.05
14269;BME280;7218;51.480;7.006;2023-02-13T07:27:33;102717.22;;;9.56;89.20
14269;BME280;7218;51.480;7.006;2023-02-13T07:29:59;102719.75;;;9.52;89.06
14269;BME280;7218;51.480;7.006;2023-02-13T07:32:27;102725.97;;;9.59;88.76
14269;BME280;7218;51.480;7.006;2023-02-13T07:34:54;102721.72;;;9.63;88.48
14269;BME280;7218;51.480;7.006;2023-02-13T07:37:20;102716.56;;;9.64;88.22
14269;BME280;7218;51.480;7.006;2023-02-13T07:39:46;102723.44;;;9.61;88.35
14269;BME280;7218;51.480;7.006;2023-02-13T07:42:13;102723.69;;;9.73;88.22
14269;BME280;7218;51.480;7.006;2023-02-13T07:44:39;102725.47;;;9.74;88.13
14269;BME280;7218;51.480;7.006;2023-02-13T07:47:06;102730.69;;;9.74;88.41
14269;BME280;7218;51.480;7.006;2023-02-13T07:49:34;102729.00;;;9.76;88.54
14269;BME280;7218;51.480;7.006;2023-02-13T07:52:01;102727.38;;;9.81;88.45
14269;BME280;7218;51.480;7.006;2023-02-13T07:54:27;102725.66;;;9.83;88.51
14269;BME280;7218;51.480;7.006;2023-02-13T07:56:54;102733.59;;;9.87;88.54
14269;BME280;7218;51.480;7.006;2023-02-13T07:59:20;102731.03;;;9.89;88.88
14269;BME280;7218;51.480;7.006;2023-02-13T08:01:47;102732.94;;;9.98;88.64
14269;BME280;7218;51.480;7.006;2023-02-13T08:04:13;102728.72;;;10.03;88.65
14269;BME280;7218;51.480;7.006;2023-02-13T08:06:41;102733.34;;;10.14;88.42
14269;BME280;7218;51.480;7.006;2023-02-13T08:09:13;102730.81;;;10.17;88.24
14269;BME280;7218;51.480;7.006;2023-02-13T08:12:00;102730.09;;;10.24;87.62
14269;BME280;7218;51.480;7.006;2023-02-13T08:14:27;102737.94;;;10.24;87.90
14269;BME280;7218;51.480;7.006;2023-02-13T08:16:54;102740.69;;;10.30;87.77
14269;BME280;7218;51.480;7.006;2023-02-13T08:19:20;102738.16;;;10.36;87.78
14269;BME280;7218;51.480;7.006;2023-02-13T08:21:48;102737.38;;;10.39;87.94
14269;BME280;7218;51.480;7.006;2023-02-13T08:24:15;102741.09;;;10.52;87.78
14269;BME280;7218;51.480;7.006;2023-02-13T08:26:41;102735.97;;;10.55;87.33
14269;BME280;7218;51.480;7.006;2023-02-13T08:29:08;102728.25;;;10.62;87.09
14269;BME280;7218;51.480;7.006;2023-02-13T08:31:34;102727.63;;;10.74;86.94
14269;BME280;7218;51.480;7.006;2023-02-13T08:34:01;102731.13;;;10.74;86.51
14269;BME280;7218;51.480;7.006;2023-02-13T08:36:27;102729.41;;;10.75;85.88
14269;BME280;7218;51.480;7.006;2023-02-13T08:38:55;102736.56;;;10.85;86.09
14269;BME280;7218;51.480;7.006;2023-02-13T08:41:22;102736.69;;;10.93;85.53
14269;BME280;7218;51.480;7.006;2023-02-13T08:43:49;102733.34;;;11.01;84.44
14269;BME280;7218;51.480;7.006;2023-02-13T08:46:16;102742.50;;;11.25;83.69
14269;BME280;7218;51.480;7.006;2023-02-13T08:48:43;102740.13;;;11.40;81.64
14269;BME280;7218;51.480;7.006;2023-02-13T08:51:11;102736.16;;;11.63;81.55
14269;BME280;7218;51.480;7.006;2023-02-13T08:53:38;102733.81;;;11.78;79.72
14269;BME280;7218;51.480;7.006;2023-02-13T08:56:06;102735.53;;;11.78;79.40
14269;BME280;7218;51.480;7.006;2023-02-13T08:58:32;102736.69;;;11.96;78.08
14269;BME280;7218;51.480;7.006;2023-02-13T09:00:59;102729.75;;;11.98;77.83
14269;BME280;7218;51.480;7.006;2023-02-13T09:03:25;102739.03;;;11.78;77.26
14269;BME280;7218;51.480;7.006;2023-02-13T09:05:52;102736.00;;;12.11;76.21
14269;BME280;7218;51.480;7.006;2023-02-13T09:08:18;102742.69;;;11.91;76.92
14269;BME280;7218;51.480;7.006;2023-02-13T09:10:45;102741.59;;;12.37;75.79
14269;BME280;7218;51.480;7.006;2023-02-13T09:13:13;102735.69;;;12.53;74.66
14269;BME280;7218;51.480;7.006;2023-02-13T09:15:40;102734.34;;;12.16;75.02
14269;BME280;7218;51.480;7.006;2023-02-13T09:18:07;102741.63;;;12.38;75.54
14269;BME280;7218;51.480;7.006;2023-02-13T09:20:33;102735.47;;;12.35;74.56
14269;BME280;7218;51.480;7.006;2023-02-13T09:23:00;102725.41;;;12.71;72.87
14269;BME280;7218;51.480;7.006;2023-02-13T09:25:26;102738.03;;;13.09;70.97
14269;BME280;7218;51.480;7.006;2023-02-13T09:27:53;102730.56;;;13.48;70.08
14269;BME280;7218;51.480;7.006;2023-02-13T09:30:21;102729.22;;;13.01;71.12
14269;BME280;7218;51.480;7.006;2023-02-13T09:32:50;102723.72;;;13.71;68.51
14269;BME280;7218;51.480;7.006;2023-02-13T09:35:17;102727.41;;;13.98;66.69
14269;BME280;7218;51.480;7.006;2023-02-13T09:37:44;102729.25;;;14.21;65.60
14269;BME280;7218;51.480;7.006;2023-02-13T09:40:18;102725.00;;;14.37;64.46
14269;BME280;7218;51.480;7.006;2023-02-13T09:42:46;102727.53;;;14.23;65.25
14269;BME280;7218;51.480;7.006;2023-02-13T09:45:16;102730.31;;;14.52;65.29
14269;BME280;7218;51.480;7.006;2023-02-13T09:47:46;102729.50;;;14.69;64.76
14269;BME280;7218;51.480;7.006;2023-02-13T09:50:17;102726.06;;;15.32;61.32
14269;BME280;7218;51.480;7.006;2023-02-13T09:52:45;102733.06;;;15.80;58.82
14269;BME280;7218;51.480;7.006;2023-02-13T09:55:16;102724.09;;;16.45;55.44
14269;BME280;7218;51.480;7.006;2023-02-13T09:57:48;102738.59;;;17.21;52.95
14269;BME280;7218;51.480;7.006;2023-02-13T10:00:20;102733.03;;;17.56;51.17
14269;BME280;7218;51.480;7.006;2023-02-13T10:03:26;102735.38;;;17.90;49.08
14269;BME280;7218;51.480;7.006;2023-02-13T10:06:05;102725.97;;;18.42;48.71
14269;BME280;7218;51.480;7.006;2023-02-13T10:08:49;102733.25;;;18.21;45.44
14269;BME280;7218;51.480;7.006;2023-02-13T10:14:14;102733.84;;;19.08;43.99
14269;BME280;7218;51.480;7.006;2023-02-13T10:16:44;102735.81;;;19.52;43.34
14269;BME280;7218;51.480;7.006;2023-02-13T10:19:23;102725.44;;;19.88;41.88
14269;BME280;7218;51.480;7.006;2023-02-13T10:21:57;102736.53;;;19.60;42.37
14269;BME280;7218;51.480;7.006;2023-02-13T10:24:30;102731.75;;;20.25;40.75
14269;BME280;7218;51.480;7.006;2023-02-13T10:27:03;102738.88;;;21.03;40.49
14269;BME280;7218;51.480;7.006;2023-02-13T10:29:36;102741.06;;;20.86;39.58
14269;BME280;7218;51.480;7.006;2023-02-13T10:32:28;102738.28;;;21.30;38.21
14269;BME280;7218;51.480;7.006;2023-02-13T10:35:02;102736.00;;;21.83;38.02
14269;BME280;7218;51.480;7.006;2023-02-13T10:37:29;102732.13;;;21.28;37.58
14269;BME280;7218;51.480;7.006;2023-02-13T10:39:55;102733.09;;;21.94;37.01
14269;BME280;7218;51.480;7.006;2023-02-13T10:42:27;102738.88;;;22.39;36.27
14269;BME280;7218;51.480;7.006;2023-02-13T10:45:09;102733.38;;;23.02;36.51
14269;BME280;7218;51.480;7.006;2023-02-13T10:47:53;102728.97;;;23.29;35.09
14269;BME280;7218;51.480;7.006;2023-02-13T10:50:29;102733.47;;;21.78;36.44
14269;BME280;7218;51.480;7.006;2023-02-13T10:53:07;102731.03;;;22.93;34.65
14269;BME280;7218;51.480;7.006;2023-02-13T10:55:57;102727.44;;;23.48;33.80
14269;BME280;7218;51.480;7.006;2023-02-13T10:58:33;102728.19;;;23.51;34.04
14269;BME280;7218;51.480;7.006;2023-02-13T11:01:08;102714.47;;;23.37;33.48
14269;BME280;7218;51.480;7.006;2023-02-13T11:03:35;102721.75;;;23.58;33.90
14269;BME280;7218;51.480;7.006;2023-02-13T11:06:06;102713.00;;;24.05;33.21
14269;BME280;7218;51.480;7.006;2023-02-13T11:08:34;102712.91;;;24.54;33.11
14269;BME280;7218;51.480;7.006;2023-02-13T11:11:27;102700.56;;;24.73;32.80
14269;BME280;7218;51.480;7.006;2023-02-13T11:14:07;102706.84;;;25.16;31.85
14269;BME280;7218;51.480;7.006;2023-02-13T11:16:38;102696.97;;;25.60;31.15
14269;BME280;7218;51.480;7.006;2023-02-13T11:19:15;102689.25;;;25.52;30.71
14269;BME280;7218;51.480;7.006;2023-02-13T11:21:45;102694.22;;;25.82;29.96
14269;BME280;7218;51.480;7.006;2023-02-13T11:24:21;102692.66;;;25.15;30.71
14269;BME280;7218;51.480;7.006;2023-02-13T11:26:53;102698.53;;;25.23;30.39
14269;BME280;7218;51.480;7.006;2023-02-13T11:29:24;102681.31;;;25.71;30.39
14269;BME280;7218;51.480;7.006;2023-02-13T11:32:16;102684.53;;;26.18;30.15
14269;BME280;7218;51.480;7.006;2023-02-13T11:34:44;102682.22;;;26.67;29.99
14269;BME280;7218;51.480;7.006;2023-02-13T11:37:18;102683.19;;;26.83;29.48
14269;BME280;7218;51.480;7.006;2023-02-13T11:39:46;102672.63;;;26.98;28.84
14269;BME280;7218;51.480;7.006;2023-02-13T11:42:14;102675.72;;;27.08;28.85
14269;BME280;7218;51.480;7.006;2023-02-13T11:44:43;102676.66;;;27.07;28.03
14269;BME280;7218;51.480;7.006;2023-02-13T11:47:14;102679.34;;;27.24;27.41
14269;BME280;7218;51.480;7.006;2023-02-13T11:49:45;102672.91;;;27.63;27.32
14269;BME280;7218;51.480;7.006;2023-02-13T11:52:22;102672.25;;;27.40;26.72
14269;BME280;7218;51.480;7.006;2023-02-13T11:54:55;102675.22;;;28.19;27.44
14269;BME280;7218;51.480;7.006;2023-02-13T11:57:23;102681.38;;;28.37;27.03
14269;BME280;7218;51.480;7.006;2023-02-13T11:59:52;102673.59;;;28.48;27.14
14269;BME280;7218;51.480;7.006;2023-02-13T12:02:21;102661.75;;;27.36;26.70
14269;BME280;7218;51.480;7.006;2023-02-13T12:04:50;102655.44;;;28.04;26.85
14269;BME280;7218;51.480;7.006;2023-02-13T12:07:22;102663.63;;;28.81;26.72
14269;BME280;7218;51.480;7.006;2023-02-13T12:09:54;102656.72;;;28.77;25.60
14269;BME280;7218;51.480;7.006;2023-02-13T12:12:29;102663.31;;;28.72;25.94
14269;BME280;7218;51.480;7.006;2023-02-13T12:14:57;102654.63;;;28.51;25.78
14269;BME280;7218;51.480;7.006;2023-02-13T12:17:27;102657.81;;;28.42;25.77
14269;BME280;7218;51.480;7.006;2023-02-13T12:19:56;102652.88;;;28.81;25.90
14269;BME280;7218;51.480;7.006;2023-02-13T12:22:31;102651.84;;;28.52;26.01
14269;BME280;7218;51.480;7.006;2023-02-13T12:25:13;102645.91;;;29.08;25.66
14269;BME280;7218;51.480;7.006;2023-02-13T12:27:50;102642.16;;;29.41;25.64
14269;BME280;7218;51.480;7.006;2023-02-13T12:30:42;102642.38;;;29.52;25.15
14269;BME280;7218;51.480;7.006;2023-02-13T12:33:20;102637.88;;;28.93;25.05
14269;BME280;7218;51.480;7.006;2023-02-13T12:35:56;102643.22;;;29.08;25.10
14269;BME280;7218;51.480;7.006;2023-02-13T12:38:36;102627.97;;;29.39;24.77
14269;BME280;7218;51.480;7.006;2023-02-13T12:41:15;102627.28;;;30.20;24.16
14269;BME280;7218;51.480;7.006;2023-02-13T12:44:01;102618.75;;;30.00;24.53
14269;BME280;7218;51.480;7.006;2023-02-13T12:46:35;102612.88;;;29.36;24.37
14269;BME280;7218;51.480;7.006;2023-02-13T12:49:13;102613.72;;;29.79;24.29
14269;BME280;7218;51.480;7.006;2023-02-13T12:51:47;102608.84;;;29.86;23.85
14269;BME280;7218;51.480;7.006;2023-02-13T12:54:35;102608.28;;;30.36;24.06
14269;BME280;7218;51.480;7.006;2023-02-13T12:57:15;102609.00;;;30.66;23.81
14269;BME280;7218;51.480;7.006;2023-02-13T12:59:54;102605.97;;;30.71;23.46
14269;BME280;7218;51.480;7.006;2023-02-13T13:02:57;102601.16;;;30.76;23.54
14269;BME280;7218;51.480;7.006;2023-02-13T13:08:33;102594.84;;;28.63;25.06
14269;BME280;7218;51.480;7.006;2023-02-13T13:11:17;102595.78;;;29.51;24.63
14269;BME280;7218;51.480;7.006;2023-02-13T13:13:56;102597.03;;;30.03;23.73
14269;BME280;7218;51.480;7.006;2023-02-13T13:16:33;102591.75;;;30.01;23.73
14269;BME280;7218;51.480;7.006;2023-02-13T13:19:14;102588.47;;;30.51;23.76
14269;BME280;7218;51.480;7.006;2023-02-13T13:21:47;102597.22;;;30.00;23.98
14269;BME280;7218;51.480;7.006;2023-02-13T13:24:26;102579.53;;;30.36;23.78
14269;BME280;7218;51.480;7.006;2023-02-13T13:26:58;102585.97;;;31.27;22.95
14269;BME280;7218;51.480;7.006;2023-02-13T13:29:31;102578.44;;;30.93;22.63